Time;durP1;ratioP1;P1;durP2;ratioP2;P2;SDS_P1;SDS_P2;PMS_P1;PMS_P2;Temp;Humidity;BMP_temperature;BMP_pressure;BME280_temperature;BME280_humidity;BME280_pressure;Samples;Min_cycle;Max_cycle;Signal;HPM_P1;HPM_P2
2020/12/14 00:00:33;;;;;;;6.07;3.47;;;;;;;-0.33;86.32;100108.50;1816655;79;21359;-68
2020/12/14 00:03:01;;;;;;;7.13;3.70;;;;;;;-0.34;86.32;100102.80;1816551;79;20993;-67
2020/12/14 00:05:29;;;;;;;8.60;3.10;;;;;;;-0.34;86.34;100104.12;1816672;78;21001;-67
2020/12/14 00:07:57;;;;;;;3.60;2.87;;;;;;;-0.34;86.33;100102.80;1816476;79;21017;-68
2020/12/14 00:10:25;;;;;;;11.43;4.30;;;;;;;-0.35;86.34;100099.29;1816726;79;20926;-67
2020/12/14 00:12:54;;;;;;;5.80;3.40;;;;;;;-0.34;86.35;100102.80;1816687;79;21196;-66
2020/12/14 00:15:22;;;;;;;1.93;1.83;;;;;;;-0.35;86.34;100103.27;1816595;79;21555;-67
2020/12/14 00:17:50;;;;;;;4.63;3.67;;;;;;;-0.34;86.36;100107.62;1804707;79;20962;-66
2020/12/14 00:20:18;;;;;;;3.93;2.90;;;;;;;-0.35;86.38;100101.95;1814347;79;21010;-67
2020/12/14 00:22:46;;;;;;;9.17;3.57;;;;;;;-0.34;86.37;100112.09;1780548;80;20978;-67
2020/12/14 00:25:14;;;;;;;7.70;3.30;;;;;;;-0.35;86.39;100097.96;1780612;80;21446;-67
2020/12/14 00:27:42;;;;;;;3.73;2.83;;;;;;;-0.34;86.38;100112.09;1780450;80;21085;-65
2020/12/14 00:30:10;;;;;;;5.00;2.70;;;;;;;-0.35;86.39;100103.73;1780576;80;21013;-66
2020/12/14 00:32:38;;;;;;;4.07;2.73;;;;;;;-0.34;86.40;100088.17;1780558;80;20998;-67
2020/12/14 00:35:06;;;;;;;5.60;2.47;;;;;;;-0.34;86.40;100089.50;1780559;80;20931;-67
2020/12/14 00:37:34;;;;;;;2.50;2.30;;;;;;;-0.34;86.40;100081.05;1780503;80;21206;-68
2020/12/14 00:40:02;;;;;;;8.00;3.63;;;;;;;-0.35;86.40;100080.69;1780606;80;21085;-67
2020/12/14 00:42:30;;;;;;;2.90;2.57;;;;;;;-0.33;86.38;100075.28;1780520;80;20998;-67
2020/12/14 00:44:58;;;;;;;7.57;5.00;;;;;;;-0.32;86.38;100076.97;1780496;79;20990;-68
2020/12/14 00:47:26;;;;;;;4.50;3.07;;;;;;;-0.34;86.39;100078.39;1780503;80;21017;-68
2020/12/14 00:49:54;;;;;;;2.60;1.93;;;;;;;-0.34;86.38;100077.55;1780523;80;21194;-67
2020/12/14 00:52:22;;;;;;;4.53;2.70;;;;;;;-0.33;86.39;100080.59;1780462;80;20942;-68
2020/12/14 00:54:50;;;;;;;2.60;2.20;;;;;;;-0.31;86.37;100085.33;1780605;80;21010;-67
2020/12/14 00:57:18;;;;;;;3.60;3.20;;;;;;;-0.29;86.35;100086.08;1780541;80;21564;-67
2020/12/14 00:59:47;;;;;;;5.27;3.00;;;;;;;-0.29;86.38;100079.44;1758813;80;21001;-67
2020/12/14 01:02:14;;;;;;;5.53;3.07;;;;;;;-0.29;86.37;100068.31;1780553;80;21195;-67
2020/12/14 01:04:42;;;;;;;4.77;3.23;;;;;;;-0.29;86.36;100066.14;1780511;80;20939;-66
2020/12/14 01:07:10;;;;;;;5.30;3.43;;;;;;;-0.28;86.35;100066.05;1780532;80;20970;-67
2020/12/14 01:09:37;;;;;;;4.70;3.07;;;;;;;-0.28;86.33;100062.06;1780532;80;21053;-68
2020/12/14 01:12:05;;;;;;;3.07;2.63;;;;;;;-0.29;86.32;100065.66;1734300;80;21033;-66
2020/12/14 01:14:33;;;;;;;2.33;1.47;;;;;;;-0.30;86.32;100060.44;1780477;80;21362;-67
2020/12/14 01:17:02;;;;;;;4.83;3.33;;;;;;;-0.30;86.31;100064.42;1780581;80;21017;-69
2020/12/14 01:19:31;;;;;;;4.87;3.43;;;;;;;-0.30;86.29;100073.27;1749569;79;21022;-67
2020/12/14 01:21:59;;;;;;;4.90;3.47;;;;;;;-0.31;86.28;100078.20;1741137;82;21050;-67
2020/12/14 01:24:27;;;;;;;4.73;2.93;;;;;;;-0.30;86.32;100083.03;1741206;82;21041;-66
2020/12/14 01:26:55;;;;;;;3.67;2.57;;;;;;;-0.29;86.32;100086.08;1741144;82;21138;-67
2020/12/14 01:29:23;;;;;;;3.13;2.47;;;;;;;-0.27;86.33;100086.34;1741072;82;21043;-67
2020/12/14 01:31:51;;;;;;;3.80;2.43;;;;;;;-0.26;86.34;100084.55;1741199;82;21006;-68
2020/12/14 01:34:20;;;;;;;2.57;2.37;;;;;;;-0.25;86.31;100091.10;1741027;82;21057;-67
2020/12/14 01:36:48;;;;;;;5.77;3.03;;;;;;;-0.25;86.31;100083.58;1768818;80;21024;-67
2020/12/14 01:39:17;;;;;;;2.93;2.00;;;;;;;-0.25;86.31;100084.45;1716268;83;22408;-68
2020/12/14 01:41:45;;;;;;;2.80;2.47;;;;;;;-0.25;86.32;100089.77;1745737;82;21045;-69
2020/12/14 01:44:13;;;;;;;4.63;2.17;;;;;;;-0.23;86.29;100091.84;1745925;82;21014;-67
2020/12/14 01:46:43;;;;;;;7.53;3.23;;;;;;;-0.21;86.30;100090.42;1745918;82;21081;-67
2020/12/14 01:49:12;;;;;;;6.03;3.97;;;;;;;-0.18;86.31;100089.35;1745866;82;21105;-68
2020/12/14 01:51:39;;;;;;;3.90;3.03;;;;;;;-0.18;86.31;100075.58;1745863;82;21206;-67
2020/12/14 01:54:30;;;;;;;5.40;2.87;;;;;;;-0.18;86.31;100072.92;1745862;82;21045;-68
2020/12/14 01:56:57;;;;;;;2.77;2.40;;;;;;;-0.18;86.28;100076.06;1766729;79;21043;-67
2020/12/14 01:59:25;;;;;;;4.70;2.57;;;;;;;-0.18;86.23;100087.53;1780522;80;21019;-68
2020/12/14 02:01:53;;;;;;;5.23;3.33;;;;;;;-0.17;86.23;100084.42;1780493;80;21051;-66
2020/12/14 02:04:21;;;;;;;2.80;2.40;;;;;;;-0.17;86.23;100076.45;1780473;80;21295;-67
2020/12/14 02:06:49;;;;;;;2.00;1.77;;;;;;;-0.18;86.25;100077.39;1780396;80;20999;-68
2020/12/14 02:09:17;;;;;;;2.83;2.13;;;;;;;-0.17;86.24;100075.13;1780371;80;21023;-66
2020/12/14 02:11:45;;;;;;;4.10;2.97;;;;;;;-0.17;86.23;100077.78;1780437;80;20999;-66
2020/12/14 02:14:13;;;;;;;4.30;3.07;;;;;;;-0.18;86.22;100080.89;1746706;80;20932;-67
2020/12/14 02:16:40;;;;;;;4.80;2.03;;;;;;;-0.19;86.23;100068.58;1780480;80;21372;-67
2020/12/14 02:19:08;;;;;;;2.53;2.33;;;;;;;-0.20;86.26;100074.83;1769766;80;21062;-67
2020/12/14 02:21:36;;;;;;;2.23;2.03;;;;;;;-0.21;86.26;100085.95;1786310;80;21049;-67
2020/12/14 02:24:18;;;;;;;3.97;2.93;;;;;;;-0.18;86.27;100094.18;1747942;82;20944;-67
2020/12/14 02:26:48;;;;;;;6.33;3.43;;;;;;;-0.19;86.26;100092.50;1658809;84;21293;-68
2020/12/14 02:29:17;;;;;;;3.70;2.60;;;;;;;-0.17;86.30;100087.92;1678928;84;21627;-68
2020/12/14 02:31:46;;;;;;;2.53;2.27;;;;;;;-0.17;86.32;100085.75;1721613;83;21028;-67
2020/12/14 02:34:13;;;;;;;2.33;2.03;;;;;;;-0.20;86.32;100079.66;1701913;84;20985;-67
2020/12/14 02:36:41;;;;;;;6.27;2.97;;;;;;;-0.18;86.33;100082.22;1721826;83;21978;-68
2020/12/14 02:39:09;;;;;;;5.17;3.50;;;;;;;-0.19;86.33;100085.85;1701928;84;20973;-67
2020/12/14 02:41:36;;;;;;;3.63;2.87;;;;;;;-0.20;86.36;100082.80;1721867;83;21172;-67
2020/12/14 02:44:04;;;;;;;4.77;2.23;;;;;;;-0.22;86.38;100074.09;1701826;84;20990;-68
2020/12/14 02:46:32;;;;;;;2.50;1.97;;;;;;;-0.24;86.43;100076.00;1721821;83;21204;-68
2020/12/14 02:49:00;;;;;;;10.83;3.30;;;;;;;-0.25;86.46;100070.30;1701879;84;21103;-67
2020/12/14 02:51:27;;;;;;;8.60;3.33;;;;;;;-0.25;86.48;100076.48;1721732;83;20990;-67
2020/12/14 02:53:55;;;;;;;8.00;3.53;;;;;;;-0.25;86.53;100071.17;1701951;84;21309;-67
2020/12/14 02:56:23;;;;;;;4.07;2.87;;;;;;;-0.26;86.60;100073.44;1721739;83;21017;-67
2020/12/14 02:58:51;;;;;;;2.93;2.63;;;;;;;-0.26;86.66;100072.11;1701846;84;21088;-68
2020/12/14 03:01:19;;;;;;;3.70;2.90;;;;;;;-0.24;86.69;100070.20;1721773;83;21048;-67
2020/12/14 03:03:47;;;;;;;6.70;3.37;;;;;;;-0.26;86.72;100069.45;1701964;84;21594;-66
2020/12/14 03:06:15;;;;;;;4.50;3.30;;;;;;;-0.24;86.78;100073.34;1721627;83;21399;-67
2020/12/14 03:08:43;;;;;;;3.60;2.77;;;;;;;-0.25;86.82;100068.97;1701810;84;21061;-67
2020/12/14 03:11:10;;;;;;;4.10;2.53;;;;;;;-0.27;86.83;100076.19;1721744;83;21049;-67
2020/12/14 03:13:40;;;;;;;2.93;2.53;;;;;;;-0.28;86.85;100075.34;1701845;84;21072;-67
2020/12/14 03:16:08;;;;;;;3.63;2.83;;;;;;;-0.28;86.88;100079.82;1722007;83;21052;-67
2020/12/14 03:18:36;;;;;;;6.37;3.80;;;;;;;-0.28;86.94;100085.98;1694328;84;21470;-67
2020/12/14 03:21:07;;;;;;;3.67;2.87;;;;;;;-0.29;87.00;100077.62;1700322;81;21059;-66
2020/12/14 03:23:35;;;;;;;5.17;2.53;;;;;;;-0.29;87.06;100079.44;1779242;80;20946;-67
2020/12/14 03:26:03;;;;;;;4.83;3.80;;;;;;;-0.30;87.08;100075.05;1760170;81;20992;-67
2020/12/14 03:28:31;;;;;;;5.00;2.90;;;;;;;-0.32;87.09;100068.55;1759313;81;21001;-67
2020/12/14 03:30:59;;;;;;;5.80;3.13;;;;;;;-0.32;87.14;100075.64;1749513;82;21251;-66
2020/12/14 03:33:27;;;;;;;6.00;2.33;;;;;;;-0.32;87.19;100071.66;1749388;82;21036;-66
2020/12/14 03:35:58;;;;;;;3.40;3.07;;;;;;;-0.34;87.23;100073.56;1749382;82;21044;-68
2020/12/14 03:38:26;;;;;;;9.73;3.73;;;;;;;-0.33;87.25;100072.62;1749373;82;21053;-66
2020/12/14 03:40:54;;;;;;;4.13;3.23;;;;;;;-0.32;87.30;100069.00;1749569;82;20914;-67
2020/12/14 03:43:22;;;;;;;7.97;4.20;;;;;;;-0.33;87.35;100064.66;1749456;82;21283;-67
2020/12/14 03:45:50;;;;;;;6.23;3.47;;;;;;;-0.34;87.38;100065.11;1749422;82;20985;-67
2020/12/14 03:48:18;;;;;;;3.10;2.80;;;;;;;-0.33;87.42;100067.31;1749474;82;21047;-68
2020/12/14 03:50:47;;;;;;;7.17;3.33;;;;;;;-0.34;87.44;100061.13;1749308;82;21033;-67
2020/12/14 03:53:15;;;;;;;5.33;3.23;;;;;;;-0.32;87.47;100065.01;1749568;81;21611;-67
2020/12/14 03:55:43;;;;;;;4.03;3.03;;;;;;;-0.33;87.50;100060.66;1749436;82;22393;-67
2020/12/14 03:58:11;;;;;;;6.40;4.17;;;;;;;-0.34;87.51;100066.92;1749379;82;21036;-67
2020/12/14 04:00:39;;;;;;;4.87;2.53;;;;;;;-0.36;87.53;100052.41;1749483;82;20989;-67
2020/12/14 04:03:08;;;;;;;6.90;3.87;;;;;;;-0.35;87.55;100051.47;1749441;82;20886;-67
2020/12/14 04:05:37;;;;;;;8.30;4.40;;;;;;;-0.34;87.57;100045.66;1749455;81;21072;-67
2020/12/14 04:08:05;;;;;;;5.20;3.27;;;;;;;-0.35;87.59;100044.82;1749442;82;21270;-66
2020/12/14 04:10:35;;;;;;;4.27;2.27;;;;;;;-0.35;87.64;100041.29;1749417;82;21033;-68
2020/12/14 04:13:03;;;;;;;7.40;3.23;;;;;;;-0.36;87.65;100040.93;1749432;82;21068;-67
2020/12/14 04:15:32;;;;;;;6.90;3.40;;;;;;;-0.35;87.65;100051.92;1749404;81;21033;-67
2020/12/14 04:18:00;;;;;;;12.13;3.10;;;;;;;-0.36;87.68;100059.05;1746390;81;21008;-67
2020/12/14 04:20:27;;;;;;;5.40;2.77;;;;;;;-0.37;87.71;100064.00;1735156;82;21395;-68
2020/12/14 04:22:56;;;;;;;3.17;2.30;;;;;;;-0.37;87.71;100063.13;1732257;82;20955;-68
2020/12/14 04:25:24;;;;;;;5.97;3.03;;;;;;;-0.37;87.73;100065.33;1732169;82;20971;-68
2020/12/14 04:27:57;;;;;;;4.80;3.27;;;;;;;-0.36;87.72;100072.33;1732335;82;21078;-68
2020/12/14 04:30:22;;;;;;;3.03;2.57;;;;;;;-0.38;87.76;100062.28;1723529;82;20991;-68
2020/12/14 04:32:50;;;;;;;3.50;2.50;;;;;;;-0.39;87.78;100064.55;1726013;83;22098;-68
2020/12/14 04:35:18;;;;;;;5.17;3.10;;;;;;;-0.40;87.79;100063.71;1725943;83;20967;-68
2020/12/14 04:37:48;;;;;;;3.93;2.83;;;;;;;-0.38;87.81;100068.92;1726071;83;21010;-67
2020/12/14 04:40:17;;;;;;;3.57;3.00;;;;;;;-0.39;87.82;100072.07;1725949;83;21170;-68
2020/12/14 04:42:45;;;;;;;4.97;3.23;;;;;;;-0.38;87.83;100068.92;1726004;83;21003;-68
2020/12/14 04:45:13;;;;;;;4.20;2.93;;;;;;;-0.40;87.84;100065.03;1725926;83;21129;-68
2020/12/14 04:47:41;;;;;;;3.40;2.50;;;;;;;-0.40;87.84;100084.97;1725896;83;21031;-68
2020/12/14 04:50:09;;;;;;;2.67;2.43;;;;;;;-0.40;87.82;100091.61;1725961;83;21043;-67
2020/12/14 04:52:37;;;;;;;4.70;2.67;;;;;;;-0.39;87.84;100093.78;1725932;83;20999;-67
2020/12/14 04:55:05;;;;;;;4.73;2.53;;;;;;;-0.39;87.85;100089.80;1726093;83;20940;-68
2020/12/14 04:57:33;;;;;;;3.43;2.43;;;;;;;-0.41;87.85;100084.61;1725962;83;21216;-68
2020/12/14 05:00:01;;;;;;;4.13;2.97;;;;;;;-0.40;87.83;100098.73;1726007;83;21027;-68
2020/12/14 05:02:29;;;;;;;3.70;2.50;;;;;;;-0.40;87.84;100102.23;1726009;83;21022;-68
2020/12/14 05:04:57;;;;;;;2.13;1.93;;;;;;;-0.39;87.82;100093.78;1726018;83;21070;-68
2020/12/14 05:07:44;;;;;;;4.23;2.53;;;;;;;-0.40;87.83;100090.77;1725990;83;21535;-68
2020/12/14 05:10:11;;;;;;;3.33;2.77;;;;;;;-0.40;87.83;100089.44;1712994;83;21579;-67
2020/12/14 05:12:44;;;;;;;4.97;2.93;;;;;;;-0.39;87.80;100096.44;1713079;83;21128;-67
2020/12/14 05:15:31;;;;;;;2.93;2.27;;;;;;;-0.34;87.81;100105.45;1851914;76;27003;-68
2020/12/14 05:18:14;;;;;;;5.17;3.37;;;;;;;-0.40;87.81;100104.05;1699471;84;21925;-68
2020/12/14 05:20:57;;;;;;;2.57;1.73;;;;;;;-0.36;87.81;100095.41;1845282;76;26457;-68
2020/12/14 05:23:27;;;;;;;4.27;2.03;;;;;;;-0.40;87.80;100101.39;1815450;79;21498;-68
2020/12/14 05:26:07;;;;;;;3.90;3.07;;;;;;;-0.39;87.80;100109.72;1815297;79;21173;-68
2020/12/14 05:28:36;;;;;;;3.70;2.57;;;;;;;-0.41;87.80;100104.53;1815139;79;21016;-68
2020/12/14 05:31:04;;;;;;;2.87;1.97;;;;;;;-0.41;87.84;100108.52;1815162;79;20992;-68
2020/12/14 05:33:32;;;;;;;4.60;2.30;;;;;;;-0.40;87.81;100105.37;1815172;77;20996;-68
2020/12/14 05:36:00;;;;;;;4.20;2.53;;;;;;;-0.37;87.82;100108.30;1815220;79;21028;-68
2020/12/14 05:38:32;;;;;;;4.13;2.90;;;;;;;-0.37;87.83;100105.19;1815111;77;21339;-68
2020/12/14 05:41:03;;;;;;;3.33;2.67;;;;;;;-0.36;87.81;100111.34;1815235;79;21485;-68
2020/12/14 05:43:32;;;;;;;1.83;1.67;;;;;;;-0.36;87.81;100111.34;1767293;81;20948;-67
2020/12/14 05:46:16;;;;;;;3.53;3.07;;;;;;;-0.36;87.81;100112.19;1753926;80;21018;-67
2020/12/14 05:48:44;;;;;;;3.80;3.00;;;;;;;-0.34;87.82;100116.08;1702619;84;21046;-67
2020/12/14 05:51:13;;;;;;;4.33;1.93;;;;;;;-0.33;87.78;100114.66;1723366;83;21313;-68
2020/12/14 05:53:50;;;;;;;5.17;2.70;;;;;;;-0.34;87.78;100112.94;1723440;83;21033;-68
2020/12/14 05:56:19;;;;;;;7.43;3.53;;;;;;;-0.33;87.79;100115.98;1723362;83;20967;-67
2020/12/14 05:58:51;;;;;;;7.00;3.30;;;;;;;-0.31;87.78;100115.89;1723359;83;21050;-68
2020/12/14 06:01:20;;;;;;;4.30;2.80;;;;;;;-0.29;87.77;100127.27;1759335;81;21537;-71
2020/12/14 06:03:48;;;;;;;3.97;2.20;;;;;;;-0.28;87.76;100127.66;1733064;81;21398;-68
2020/12/14 06:06:16;;;;;;;3.00;2.70;;;;;;;-0.22;87.83;100119.27;1758909;81;21064;-68
2020/12/14 06:09:06;;;;;;;4.37;2.60;;;;;;;-0.15;87.91;100129.88;1732724;81;21048;-69
2020/12/14 06:11:36;;;;;;;4.60;3.10;;;;;;;-0.09;87.89;100137.45;1724728;82;21037;-69
2020/12/14 06:14:05;;;;;;;5.20;3.17;;;;;;;-0.06;87.85;100139.89;1740714;81;20987;-72
2020/12/14 06:19:11;;;;;;;7.73;3.60;;;;;;;0.03;87.76;100127.80;1827174;77;26756;-72
2020/12/14 06:21:47;;;;;;;3.50;2.40;;;;;;;-0.02;87.66;100128.13;1791217;78;21015;-72
2020/12/14 06:24:19;;;;;;;4.40;3.30;;;;;;;-0.01;87.58;100131.63;1781095;80;22249;-72
2020/12/14 06:26:54;;;;;;;4.83;2.93;;;;;;;0.04;87.52;100136.66;1834622;76;25512;-72
2020/12/14 06:29:32;;;;;;;2.67;2.43;;;;;;;-0.02;87.47;100125.92;1791595;79;21036;-72
2020/12/14 06:32:00;;;;;;;7.23;3.60;;;;;;;-0.03;87.40;100137.53;1853395;77;21249;-73
2020/12/14 06:34:37;;;;;;;5.57;3.23;;;;;;;-0.04;87.34;100137.14;1854471;77;21052;-72
2020/12/14 06:37:05;;;;;;;5.63;4.00;;;;;;;-0.06;87.33;100139.05;1838512;78;21543;-71
2020/12/14 06:39:37;;;;;;;3.57;2.97;;;;;;;-0.10;87.33;100143.72;1833253;78;20946;-71
2020/12/14 06:42:18;;;;;;;3.20;2.52;;;;;;;-0.12;87.34;100150.94;1821996;78;20910;-72
2020/12/14 06:45:03;;;;;;;3.73;2.90;;;;;;;-0.13;87.36;100137.75;1821845;78;22247;-70
2020/12/14 06:47:46;;;;;;;4.17;3.07;;;;;;;-0.13;87.39;100131.10;1821617;78;21081;-71
2020/12/14 06:50:26;;;;;;;5.53;3.70;;;;;;;-0.16;87.41;100140.14;1821631;78;20991;-68
2020/12/14 06:52:56;;;;;;;3.20;2.97;;;;;;;-0.17;87.47;100140.24;1710129;83;21052;-68
2020/12/14 06:55:44;;;;;;;2.80;2.40;;;;;;;-0.20;87.50;100135.96;1710283;83;21057;-71
2020/12/14 06:58:33;;;;;;;6.90;3.43;;;;;;;-0.20;87.57;100131.48;1710522;83;21282;-71
2020/12/14 07:01:03;;;;;;;3.60;2.73;;;;;;;-0.20;87.64;100134.63;1710437;83;21104;-72
2020/12/14 07:03:36;;;;;;;5.07;2.90;;;;;;;-0.23;87.68;100136.15;1709987;83;21092;-70
2020/12/14 07:06:05;;;;;;;3.15;2.55;;;;;;;-0.24;87.73;100136.64;1710692;83;21108;-71
2020/12/14 07:08:38;;;;;;;6.73;2.73;;;;;;;-0.25;87.78;100148.23;1710776;83;20958;-71
2020/12/14 07:11:14;;;;;;;6.10;3.67;;;;;;;-0.22;87.83;100143.19;1730226;80;21381;-71
2020/12/14 07:13:44;;;;;;;3.93;2.70;;;;;;;-0.22;87.90;100132.07;1733966;82;21139;-71
2020/12/14 07:16:13;;;;;;;2.17;1.97;;;;;;;-0.20;87.98;100128.83;1717579;82;20982;-74
2020/12/14 07:18:42;;;;;;;4.57;2.97;;;;;;;-0.16;88.04;100138.81;1715207;82;21029;-70
2020/12/14 07:21:15;;;;;;;6.80;3.77;;;;;;;-0.12;88.09;100134.99;1717078;82;21609;-72
2020/12/14 07:23:47;;;;;;;6.93;3.83;;;;;;;-0.13;88.10;100135.93;1737324;82;21215;-70
2020/12/14 07:26:16;;;;;;;4.47;2.67;;;;;;;-0.14;88.09;100140.89;1731245;82;20946;-69
2020/12/14 07:28:48;;;;;;;4.10;2.23;;;;;;;-0.18;88.06;100134.05;1733733;82;20982;-71
2020/12/14 07:31:19;;;;;;;3.95;3.50;;;;;;;-0.17;88.10;100135.77;1739711;81;21437;-70
2020/12/14 07:33:57;;;;;;;3.53;2.70;;;;;;;-0.13;88.14;100133.27;1735162;81;21048;-70
2020/12/14 07:36:27;;;;;;;7.07;3.97;;;;;;;-0.09;88.20;100130.81;1744882;81;21760;-71
2020/12/14 07:38:57;;;;;;;3.53;2.80;;;;;;;-0.04;88.27;100146.44;1762543;81;21040;-70
2020/12/14 07:41:26;;;;;;;5.17;2.70;;;;;;;-0.02;88.28;100153.84;1731842;81;20981;-68
2020/12/14 07:43:56;;;;;;;4.07;2.70;;;;;;;-0.02;88.27;100169.33;1756979;81;21581;-70
2020/12/14 07:46:34;;;;;;;4.03;2.27;;;;;;;0.02;88.28;100167.78;1732496;82;21140;-68
2020/12/14 07:49:13;;;;;;;4.17;3.27;;;;;;;0.08;88.24;100171.38;1887733;75;26737;-70
2020/12/14 07:51:44;;;;;;;4.93;2.73;;;;;;;0.02;88.20;100182.41;1868417;76;20986;-69
2020/12/14 07:54:14;;;;;;;4.83;3.20;;;;;;;0.02;88.19;100187.27;1757881;80;21203;-69
2020/12/14 07:56:45;;;;;;;3.90;2.97;;;;;;;0.05;88.22;100189.70;1749124;81;21125;-69
2020/12/14 07:59:22;;;;;;;3.63;2.57;;;;;;;0.08;88.21;100186.01;1736929;81;21080;-68
2020/12/14 08:01:50;;;;;;;5.27;2.60;;;;;;;0.09;88.17;100183.70;1743192;81;20910;-70
2020/12/14 08:04:39;;;;;;;4.27;2.53;;;;;;;0.09;88.13;100184.58;1753451;81;20958;-68
2020/12/14 08:07:10;;;;;;;6.77;3.23;;;;;;;0.10;88.11;100189.41;1749230;81;21271;-68
2020/12/14 08:09:45;;;;;;;2.63;2.33;;;;;;;0.11;88.13;100176.50;1725904;81;21076;-71
2020/12/14 08:12:13;;;;;;;3.00;2.17;;;;;;;0.12;88.13;100184.84;1739811;81;21092;-69
2020/12/14 08:14:41;;;;;;;3.63;2.93;;;;;;;0.14;88.11;100173.17;1751527;81;21076;-69
2020/12/14 08:17:12;;;;;;;4.17;2.60;;;;;;;0.14;88.09;100176.28;1745946;81;21081;-68
2020/12/14 08:19:40;;;;;;;7.53;3.43;;;;;;;0.11;88.04;100173.36;1714356;82;21193;-68
2020/12/14 08:22:09;;;;;;;4.87;3.23;;;;;;;0.11;88.06;100169.86;1718679;82;21619;-68
2020/12/14 08:24:39;;;;;;;3.00;2.63;;;;;;;0.09;88.06;100165.97;1703421;84;21053;-67
2020/12/14 08:27:10;;;;;;;4.40;2.30;;;;;;;0.08;88.07;100168.23;1702487;83;21220;-69
2020/12/14 08:30:06;;;;;;;5.63;3.17;;;;;;;0.13;88.08;100158.64;1838122;76;26491;-69
2020/12/14 08:32:34;;;;;;;6.20;3.57;;;;;;;0.10;88.09;100157.50;1741698;81;21062;-69
2020/12/14 08:35:22;;;;;;;3.20;2.53;;;;;;;0.08;88.12;100157.60;1763247;81;21345;-68
2020/12/14 08:37:51;;;;;;;2.07;1.93;;;;;;;0.06;88.14;100158.67;1708845;83;21558;-67
2020/12/14 08:40:20;;;;;;;2.57;2.37;;;;;;;0.07;88.19;100158.57;1771452;79;21008;-68
2020/12/14 08:42:48;;;;;;;3.67;2.23;;;;;;;0.11;88.23;100159.22;1777955;79;21062;-69
2020/12/14 08:45:17;;;;;;;3.00;2.23;;;;;;;0.14;88.29;100161.20;1782849;80;21065;-69
2020/12/14 08:47:44;;;;;;;2.67;2.27;;;;;;;0.16;88.33;100149.98;1793026;79;21374;-69
2020/12/14 08:50:16;;;;;;;4.33;2.67;;;;;;;0.21;88.37;100153.64;1788729;79;20989;-71
2020/12/14 08:52:43;;;;;;;2.57;2.37;;;;;;;0.26;88.40;100160.00;1794734;79;21164;-68
2020/12/14 08:55:11;;;;;;;3.67;2.83;;;;;;;0.29;88.42;100159.80;1809214;79;21005;-68
2020/12/14 08:57:39;;;;;;;3.90;2.23;;;;;;;0.32;88.43;100149.81;1794900;79;21012;-68
2020/12/14 09:00:10;;;;;;;8.30;3.57;;;;;;;0.34;88.42;100145.72;1801893;79;21380;-69
2020/12/14 09:02:39;;;;;;;6.33;3.27;;;;;;;0.41;88.42;100163.43;1800350;79;21205;-69
2020/12/14 09:05:18;;;;;;;4.07;2.57;;;;;;;0.42;88.39;100159.34;1789530;79;21088;-72
2020/12/14 09:07:47;;;;;;;6.83;3.37;;;;;;;0.44;88.37;100169.39;1811553;79;20978;-68
2020/12/14 09:10:17;;;;;;;2.93;2.43;;;;;;;0.45;88.34;100165.80;1806186;79;20914;-70
2020/12/14 09:12:45;;;;;;;15.47;3.23;;;;;;;0.45;88.30;100157.81;1796193;79;21138;-69
2020/12/14 09:15:15;;;;;;;4.13;3.10;;;;;;;0.47;88.26;100153.23;1799721;79;21001;-70
2020/12/14 09:17:45;;;;;;;5.10;2.73;;;;;;;0.49;88.26;100145.16;1788876;79;21564;-72
2020/12/14 09:20:13;;;;;;;5.17;3.47;;;;;;;0.50;88.24;100134.90;1786001;78;21059;-70
2020/12/14 09:22:40;;;;;;;6.37;3.70;;;;;;;0.52;88.22;100143.62;1784538;80;21613;-75
2020/12/14 09:25:08;;;;;;;5.63;2.60;;;;;;;0.52;88.25;100131.16;1779987;80;21809;-71
2020/12/14 09:27:36;;;;;;;5.93;3.20;;;;;;;0.54;88.23;100125.73;1784501;80;20937;-73
2020/12/14 09:30:04;;;;;;;4.70;3.10;;;;;;;0.56;88.24;100116.68;1799816;79;21551;-71
2020/12/14 09:32:32;;;;;;;5.27;2.37;;;;;;;0.56;88.21;100116.68;1808401;79;21589;-71
2020/12/14 09:35:00;;;;;;;3.20;2.23;;;;;;;0.57;88.17;100132.19;1726252;80;21054;-71
2020/12/14 09:37:29;;;;;;;6.23;3.47;;;;;;;0.59;88.14;100140.07;1737240;80;21603;-68
2020/12/14 09:39:57;;;;;;;6.03;3.13;;;;;;;0.59;88.14;100127.61;1753693;80;21000;-72
2020/12/14 09:42:25;;;;;;;6.60;3.33;;;;;;;0.59;88.09;100120.11;1763270;79;20981;-71
2020/12/14 09:44:53;;;;;;;3.27;2.30;;;;;;;0.58;88.07;100119.24;1758653;81;20997;-70
2020/12/14 09:47:21;;;;;;;5.77;3.37;;;;;;;0.59;88.04;100122.29;1764523;81;21765;-72
2020/12/14 09:49:50;;;;;;;7.10;3.57;;;;;;;0.60;88.00;100126.63;1733705;81;21213;-71
2020/12/14 09:52:18;;;;;;;4.50;3.00;;;;;;;0.58;87.98;100127.22;1770183;81;21008;-71
2020/12/14 09:54:45;;;;;;;8.30;4.20;;;;;;;0.59;87.97;100141.41;1767238;81;21025;-72
2020/12/14 09:57:13;;;;;;;9.23;4.13;;;;;;;0.56;87.96;100134.47;1755715;79;21064;-72
2020/12/14 09:59:41;;;;;;;5.07;3.20;;;;;;;0.54;87.95;100139.89;1703160;81;21017;-68
2020/12/14 10:02:09;;;;;;;5.37;2.50;;;;;;;0.54;87.95;100145.70;1765565;79;22183;-68
2020/12/14 10:04:37;;;;;;;3.40;2.50;;;;;;;0.54;87.95;100145.70;1758193;81;21044;-72
2020/12/14 10:07:04;;;;;;;2.57;2.37;;;;;;;0.55;87.93;100149.59;1764243;80;21644;-70
2020/12/14 10:09:32;;;;;;;3.83;2.90;;;;;;;0.58;87.93;100146.34;1731527;82;20908;-68
2020/12/14 10:12:00;;;;;;;4.73;3.07;;;;;;;0.58;87.93;100135.20;1732247;82;21042;-71
2020/12/14 10:14:29;;;;;;;7.83;3.53;;;;;;;0.57;87.91;100132.19;1737982;80;21439;-69
2020/12/14 10:16:57;;;;;;;6.50;3.77;;;;;;;0.56;87.93;100135.80;1753486;80;20999;-67
2020/12/14 10:19:25;;;;;;;4.13;2.70;;;;;;;0.55;87.96;100128.78;1795957;79;21000;-66
2020/12/14 10:21:54;;;;;;;1.50;1.40;;;;;;;0.54;87.95;100127.07;1767418;80;21036;-67
2020/12/14 10:24:21;;;;;;;2.20;1.43;;;;;;;0.54;87.98;100116.42;1765191;81;21025;-69
2020/12/14 10:26:52;;;;;;;3.70;2.60;;;;;;;0.54;87.95;100117.27;1741524;80;21212;-69
2020/12/14 10:29:22;;;;;;;3.60;2.67;;;;;;;0.55;87.96;100112.82;1748597;80;21620;-69
2020/12/14 10:31:51;;;;;;;6.53;3.30;;;;;;;0.55;87.98;100105.69;1750522;81;21026;-68
2020/12/14 10:34:19;;;;;;;5.87;3.63;;;;;;;0.56;88.01;100113.17;1744661;81;21047;-68
2020/12/14 10:36:48;;;;;;;9.03;3.70;;;;;;;0.57;88.06;100117.55;1745502;80;21074;-67
2020/12/14 10:39:16;;;;;;;3.43;2.57;;;;;;;0.58;88.10;100110.41;1752831;81;21373;-66
2020/12/14 10:41:44;;;;;;;4.83;3.03;;;;;;;0.58;88.11;100105.94;1778873;80;21058;-66
2020/12/14 10:44:11;;;;;;;4.07;2.63;;;;;;;0.62;88.14;100110.11;1742573;81;21143;-65
2020/12/14 10:46:39;;;;;;;5.77;2.50;;;;;;;0.64;88.15;100110.85;1753588;81;21042;-66
2020/12/14 10:49:08;;;;;;;4.37;3.03;;;;;;;0.69;88.21;100122.03;1747932;80;21015;-69
2020/12/14 10:51:36;;;;;;;5.00;3.40;;;;;;;0.72;88.23;100118.30;1758888;80;21387;-66
2020/12/14 10:54:04;;;;;;;2.40;1.93;;;;;;;0.77;88.25;100122.83;1759602;81;21636;-66
2020/12/14 10:56:33;;;;;;;2.77;2.50;;;;;;;0.78;88.27;100130.33;1759466;81;21057;-68
2020/12/14 10:59:04;;;;;;;4.43;3.03;;;;;;;0.77;88.24;100124.64;1759370;80;21026;-69
2020/12/14 11:01:32;;;;;;;6.23;3.63;;;;;;;0.79;88.22;100122.72;1759491;80;20998;-69
2020/12/14 11:04:07;;;;;;;6.10;3.90;;;;;;;0.81;88.20;100123.46;1757273;81;21377;-68
2020/12/14 11:06:40;;;;;;;6.20;4.00;;;;;;;0.80;88.22;100130.61;1744942;81;20993;-66
2020/12/14 11:09:10;;;;;;;3.43;2.67;;;;;;;0.79;88.19;100123.56;1777600;80;21057;-67
2020/12/14 11:11:38;;;;;;;6.77;3.53;;;;;;;0.78;88.19;100117.02;1780055;80;20989;-70
2020/12/14 11:14:07;;;;;;;9.43;3.67;;;;;;;0.78;88.16;100110.36;1754286;80;20886;-67
2020/12/14 11:16:42;;;;;;;8.17;3.57;;;;;;;0.78;88.13;100108.57;1751412;82;21271;-67
2020/12/14 11:19:09;;;;;;;;;;;;;;;0.78;88.11;100117.89;1769291;80;20969;-65
2020/12/14 11:21:37;;;;;;;4.10;3.03;;;;;;;0.79;88.08;100122.72;1770605;80;20135;-67
2020/12/14 11:24:05;;;;;;;5.80;3.40;;;;;;;0.77;88.04;100110.00;1774351;80;21821;-68
2020/12/14 11:26:32;;;;;;;5.57;3.50;;;;;;;0.72;88.02;100115.14;1758484;81;21051;-67
2020/12/14 11:29:01;;;;;;;7.60;4.30;;;;;;;0.71;88.03;100120.11;1750323;81;21385;-68
2020/12/14 11:31:30;;;;;;;5.37;3.43;;;;;;;0.75;88.07;100118.09;1770141;81;21021;-67
2020/12/14 11:33:59;;;;;;;4.97;3.10;;;;;;;0.75;88.08;100112.28;1762409;81;20989;-70
2020/12/14 11:36:28;;;;;;;5.63;3.93;;;;;;;0.78;88.08;100117.02;1740842;81;21073;-73
2020/12/14 11:38:57;;;;;;;8.00;4.00;;;;;;;0.78;88.09;100120.55;1734414;81;21036;-69
2020/12/14 11:41:26;;;;;;;6.53;3.40;;;;;;;0.79;88.09;100128.89;1747446;81;21657;-70
2020/12/14 11:43:55;;;;;;;4.57;2.90;;;;;;;0.80;88.09;100129.27;1758852;81;21664;-65